sensor_id;sensor_type;location;lat;lon;timestamp;P1;durP1;ratioP1;P2;durP2;ratioP2
15202;SDS011;7702;51.046;5.184;2023-07-16T00:00:13;6.60;;;3.20;;
15202;SDS011;7702;51.046;5.184;2023-07-16T00:02:43;6.23;;;3.60;;
15202;SDS011;7702;51.046;5.184;2023-07-16T00:05:09;3.93;;;3.00;;
15202;SDS011;7702;51.046;5.184;2023-07-16T00:07:34;8.23;;;3.57;;
15202;SDS011;7702;51.046;5.184;2023-07-16T00:10:00;6.37;;;3.37;;
15202;SDS011;7702;51.046;5.184;2023-07-16T00:12:26;8.57;;;3.37;;
15202;SDS011;7702;51.046;5.184;2023-07-16T00:14:53;8.03;;;3.50;;
15202;SDS011;7702;51.046;5.184;2023-07-16T00:17:20;4.83;;;3.70;;
15202;SDS011;7702;51.046;5.184;2023-07-16T00:19:46;8.03;;;3.67;;
15202;SDS011;7702;51.046;5.184;2023-07-16T00:22:11;6.50;;;3.63;;
15202;SDS011;7702;51.046;5.184;2023-07-16T00:24:37;4.07;;;3.67;;
15202;SDS011;7702;51.046;5.184;2023-07-16T00:27:03;7.47;;;3.90;;
15202;SDS011;7702;51.046;5.184;2023-07-16T00:29:28;7.90;;;3.63;;
15202;SDS011;7702;51.046;5.184;2023-07-16T00:31:55;8.53;;;4.20;;
15202;SDS011;7702;51.046;5.184;2023-07-16T00:34:20;7.03;;;4.00;;
15202;SDS011;7702;51.046;5.184;2023-07-16T00:36:46;6.13;;;3.57;;
15202;SDS011;7702;51.046;5.184;2023-07-16T00:39:12;7.23;;;3.40;;
15202;SDS011;7702;51.046;5.184;2023-07-16T00:41:37;5.77;;;3.77;;
15202;SDS011;7702;51.046;5.184;2023-07-16T00:44:04;7.23;;;3.90;;
15202;SDS011;7702;51.046;5.184;2023-07-16T00:46:30;9.63;;;4.27;;
15202;SDS011;7702;51.046;5.184;2023-07-16T00:48:56;6.47;;;3.93;;
15202;SDS011;7702;51.046;5.184;2023-07-16T00:51:22;7.77;;;3.67;;
15202;SDS011;7702;51.046;5.184;2023-07-16T00:53:51;6.17;;;3.70;;
15202;SDS011;7702;51.046;5.184;2023-07-16T00:56:17;9.33;;;3.77;;
15202;SDS011;7702;51.046;5.184;2023-07-16T00:58:43;5.03;;;4.13;;
15202;SDS011;7702;51.046;5.184;2023-07-16T01:01:09;8.03;;;4.77;;
15202;SDS011;7702;51.046;5.184;2023-07-16T01:03:34;7.10;;;4.40;;
15202;SDS011;7702;51.046;5.184;2023-07-16T01:06:04;7.73;;;3.87;;
15202;SDS011;7702;51.046;5.184;2023-07-16T01:08:55;7.60;;;4.03;;
15202;SDS011;7702;51.046;5.184;2023-07-16T01:11:43;8.77;;;3.80;;
15202;SDS011;7702;51.046;5.184;2023-07-16T01:14:10;6.20;;;3.70;;
15202;SDS011;7702;51.046;5.184;2023-07-16T01:16:37;7.73;;;3.90;;
15202;SDS011;7702;51.046;5.184;2023-07-16T01:19:03;5.67;;;3.40;;
15202;SDS011;7702;51.046;5.184;2023-07-16T01:29:57;6.20;;;3.33;;
15202;SDS011;7702;51.046;5.184;2023-07-16T01:32:28;7.00;;;2.80;;
15202;SDS011;7702;51.046;5.184;2023-07-16T01:34:58;7.17;;;3.13;;
15202;SDS011;7702;51.046;5.184;2023-07-16T01:37:25;5.77;;;3.67;;
15202;SDS011;7702;51.046;5.184;2023-07-16T01:39:50;5.40;;;3.17;;
15202;SDS011;7702;51.046;5.184;2023-07-16T01:42:16;5.13;;;2.80;;
15202;SDS011;7702;51.046;5.184;2023-07-16T01:44:42;7.50;;;3.20;;
15202;SDS011;7702;51.046;5.184;2023-07-16T01:47:15;7.63;;;3.00;;
15202;SDS011;7702;51.046;5.184;2023-07-16T01:49:54;7.10;;;2.77;;
15202;SDS011;7702;51.046;5.184;2023-07-16T01:52:20;6.57;;;3.17;;
15202;SDS011;7702;51.046;5.184;2023-07-16T01:54:46;8.23;;;3.30;;
15202;SDS011;7702;51.046;5.184;2023-07-16T01:57:12;5.47;;;3.10;;
15202;SDS011;7702;51.046;5.184;2023-07-16T01:59:38;10.47;;;3.40;;
15202;SDS011;7702;51.046;5.184;2023-07-16T02:02:04;5.93;;;3.03;;
15202;SDS011;7702;51.046;5.184;2023-07-16T02:04:31;8.03;;;3.10;;
15202;SDS011;7702;51.046;5.184;2023-07-16T02:06:56;9.17;;;3.57;;
15202;SDS011;7702;51.046;5.184;2023-07-16T02:09:22;3.70;;;2.70;;
15202;SDS011;7702;51.046;5.184;2023-07-16T02:11:48;6.77;;;3.30;;
15202;SDS011;7702;51.046;5.184;2023-07-16T02:14:14;6.40;;;3.07;;
15202;SDS011;7702;51.046;5.184;2023-07-16T02:16:41;9.37;;;3.67;;
15202;SDS011;7702;51.046;5.184;2023-07-16T02:19:06;7.40;;;3.10;;
15202;SDS011;7702;51.046;5.184;2023-07-16T02:21:32;7.27;;;3.13;;
15202;SDS011;7702;51.046;5.184;2023-07-16T02:23:58;5.50;;;2.60;;
15202;SDS011;7702;51.046;5.184;2023-07-16T02:26:24;9.47;;;3.93;;
15202;SDS011;7702;51.046;5.184;2023-07-16T02:28:49;5.67;;;3.13;;
15202;SDS011;7702;51.046;5.184;2023-07-16T02:31:16;6.97;;;3.80;;
15202;SDS011;7702;51.046;5.184;2023-07-16T02:33:41;7.33;;;3.20;;
15202;SDS011;7702;51.046;5.184;2023-07-16T02:36:07;7.33;;;3.23;;
15202;SDS011;7702;51.046;5.184;2023-07-16T02:38:33;8.67;;;3.27;;
15202;SDS011;7702;51.046;5.184;2023-07-16T02:40:58;6.23;;;3.50;;
15202;SDS011;7702;51.046;5.184;2023-07-16T02:43:25;8.00;;;3.20;;
15202;SDS011;7702;51.046;5.184;2023-07-16T02:45:50;6.77;;;3.20;;
15202;SDS011;7702;51.046;5.184;2023-07-16T02:48:16;7.03;;;3.73;;
15202;SDS011;7702;51.046;5.184;2023-07-16T02:50:42;7.57;;;3.40;;
15202;SDS011;7702;51.046;5.184;2023-07-16T02:53:07;6.53;;;3.20;;
15202;SDS011;7702;51.046;5.184;2023-07-16T02:55:36;6.67;;;3.60;;
15202;SDS011;7702;51.046;5.184;2023-07-16T02:58:02;8.03;;;3.50;;
15202;SDS011;7702;51.046;5.184;2023-07-16T03:00:29;5.90;;;3.43;;
15202;SDS011;7702;51.046;5.184;2023-07-16T03:02:57;7.67;;;3.87;;
15202;SDS011;7702;51.046;5.184;2023-07-16T03:05:26;6.70;;;3.27;;
15202;SDS011;7702;51.046;5.184;2023-07-16T03:07:52;9.50;;;3.90;;
15202;SDS011;7702;51.046;5.184;2023-07-16T03:10:19;4.03;;;3.50;;
15202;SDS011;7702;51.046;5.184;2023-07-16T03:12:45;8.23;;;4.13;;
15202;SDS011;7702;51.046;5.184;2023-07-16T03:15:11;9.60;;;4.17;;
15202;SDS011;7702;51.046;5.184;2023-07-16T03:17:36;8.27;;;4.10;;
15202;SDS011;7702;51.046;5.184;2023-07-16T03:20:02;8.20;;;4.47;;
15202;SDS011;7702;51.046;5.184;2023-07-16T03:22:30;10.63;;;3.97;;
15202;SDS011;7702;51.046;5.184;2023-07-16T03:24:56;8.23;;;4.37;;
15202;SDS011;7702;51.046;5.184;2023-07-16T03:27:22;10.83;;;4.07;;
15202;SDS011;7702;51.046;5.184;2023-07-16T03:29:48;7.00;;;4.43;;
15202;SDS011;7702;51.046;5.184;2023-07-16T03:32:14;7.17;;;4.03;;
15202;SDS011;7702;51.046;5.184;2023-07-16T03:34:39;6.73;;;4.43;;
15202;SDS011;7702;51.046;5.184;2023-07-16T03:37:05;9.30;;;4.80;;
15202;SDS011;7702;51.046;5.184;2023-07-16T03:39:31;8.20;;;4.30;;
15202;SDS011;7702;51.046;5.184;2023-07-16T03:41:56;11.23;;;5.30;;
15202;SDS011;7702;51.046;5.184;2023-07-16T03:44:22;11.00;;;4.43;;
15202;SDS011;7702;51.046;5.184;2023-07-16T03:46:48;7.50;;;4.30;;
15202;SDS011;7702;51.046;5.184;2023-07-16T03:49:13;9.07;;;3.93;;
15202;SDS011;7702;51.046;5.184;2023-07-16T03:51:39;7.90;;;4.30;;
15202;SDS011;7702;51.046;5.184;2023-07-16T03:54:05;7.50;;;4.40;;
15202;SDS011;7702;51.046;5.184;2023-07-16T03:56:30;8.33;;;4.57;;
15202;SDS011;7702;51.046;5.184;2023-07-16T03:58:56;10.10;;;4.20;;
15202;SDS011;7702;51.046;5.184;2023-07-16T04:01:22;12.53;;;4.43;;
15202;SDS011;7702;51.046;5.184;2023-07-16T04:03:48;5.97;;;4.37;;
15202;SDS011;7702;51.046;5.184;2023-07-16T04:06:13;10.77;;;4.60;;
15202;SDS011;7702;51.046;5.184;2023-07-16T04:08:39;8.87;;;4.20;;
15202;SDS011;7702;51.046;5.184;2023-07-16T04:11:05;11.57;;;4.53;;
15202;SDS011;7702;51.046;5.184;2023-07-16T04:13:31;8.17;;;5.13;;
15202;SDS011;7702;51.046;5.184;2023-07-16T04:15:57;9.83;;;4.53;;
15202;SDS011;7702;51.046;5.184;2023-07-16T04:18:26;11.13;;;4.43;;
15202;SDS011;7702;51.046;5.184;2023-07-16T04:20:52;8.03;;;3.90;;
15202;SDS011;7702;51.046;5.184;2023-07-16T04:23:18;11.43;;;4.67;;
15202;SDS011;7702;51.046;5.184;2023-07-16T04:25:44;12.87;;;5.30;;
15202;SDS011;7702;51.046;5.184;2023-07-16T04:28:10;8.73;;;5.07;;
15202;SDS011;7702;51.046;5.184;2023-07-16T04:30:36;12.97;;;5.97;;
15202;SDS011;7702;51.046;5.184;2023-07-16T04:33:03;11.20;;;5.13;;
15202;SDS011;7702;51.046;5.184;2023-07-16T04:35:29;5.53;;;4.13;;
15202;SDS011;7702;51.046;5.184;2023-07-16T04:37:57;11.20;;;4.53;;
15202;SDS011;7702;51.046;5.184;2023-07-16T04:40:22;8.60;;;4.20;;
15202;SDS011;7702;51.046;5.184;2023-07-16T04:42:49;11.07;;;5.33;;
15202;SDS011;7702;51.046;5.184;2023-07-16T04:45:14;8.80;;;4.53;;
15202;SDS011;7702;51.046;5.184;2023-07-16T04:47:40;7.80;;;5.00;;
15202;SDS011;7702;51.046;5.184;2023-07-16T04:50:06;10.93;;;4.70;;
15202;SDS011;7702;51.046;5.184;2023-07-16T04:52:31;10.43;;;4.80;;
15202;SDS011;7702;51.046;5.184;2023-07-16T04:54:57;11.03;;;4.67;;
15202;SDS011;7702;51.046;5.184;2023-07-16T04:57:23;11.47;;;5.33;;
15202;SDS011;7702;51.046;5.184;2023-07-16T04:59:48;9.93;;;5.10;;
15202;SDS011;7702;51.046;5.184;2023-07-16T05:02:14;6.77;;;4.73;;
15202;SDS011;7702;51.046;5.184;2023-07-16T05:04:42;11.80;;;4.83;;
15202;SDS011;7702;51.046;5.184;2023-07-16T05:07:09;8.77;;;5.43;;
15202;SDS011;7702;51.046;5.184;2023-07-16T05:09:35;7.83;;;5.30;;
15202;SDS011;7702;51.046;5.184;2023-07-16T05:12:01;13.37;;;5.43;;
15202;SDS011;7702;51.046;5.184;2023-07-16T05:14:27;9.20;;;4.83;;
15202;SDS011;7702;51.046;5.184;2023-07-16T05:16:54;7.43;;;5.00;;
15202;SDS011;7702;51.046;5.184;2023-07-16T05:19:20;11.20;;;5.50;;
15202;SDS011;7702;51.046;5.184;2023-07-16T05:21:45;9.87;;;5.40;;
15202;SDS011;7702;51.046;5.184;2023-07-16T05:24:12;11.50;;;5.40;;
15202;SDS011;7702;51.046;5.184;2023-07-16T05:26:37;12.03;;;5.60;;
15202;SDS011;7702;51.046;5.184;2023-07-16T05:29:03;10.73;;;5.37;;
15202;SDS011;7702;51.046;5.184;2023-07-16T05:31:29;12.23;;;5.10;;
15202;SDS011;7702;51.046;5.184;2023-07-16T05:33:55;11.37;;;5.63;;
15202;SDS011;7702;51.046;5.184;2023-07-16T05:36:20;10.23;;;6.27;;
15202;SDS011;7702;51.046;5.184;2023-07-16T05:38:46;12.00;;;6.47;;
15202;SDS011;7702;51.046;5.184;2023-07-16T05:41:12;12.63;;;6.27;;
15202;SDS011;7702;51.046;5.184;2023-07-16T05:43:38;11.43;;;5.70;;
15202;SDS011;7702;51.046;5.184;2023-07-16T05:46:03;10.33;;;5.63;;
15202;SDS011;7702;51.046;5.184;2023-07-16T05:48:30;10.00;;;5.47;;
15202;SDS011;7702;51.046;5.184;2023-07-16T05:50:56;10.17;;;6.27;;
15202;SDS011;7702;51.046;5.184;2023-07-16T05:53:22;12.90;;;5.77;;
15202;SDS011;7702;51.046;5.184;2023-07-16T05:55:47;13.97;;;6.10;;
15202;SDS011;7702;51.046;5.184;2023-07-16T05:58:14;14.70;;;6.63;;
15202;SDS011;7702;51.046;5.184;2023-07-16T06:00:41;11.37;;;6.20;;
15202;SDS011;7702;51.046;5.184;2023-07-16T06:03:06;10.03;;;6.33;;
15202;SDS011;7702;51.046;5.184;2023-07-16T06:05:32;8.87;;;6.07;;
15202;SDS011;7702;51.046;5.184;2023-07-16T06:07:59;10.33;;;5.97;;
15202;SDS011;7702;51.046;5.184;2023-07-16T06:10:25;10.87;;;7.20;;
15202;SDS011;7702;51.046;5.184;2023-07-16T06:12:51;8.93;;;6.10;;
15202;SDS011;7702;51.046;5.184;2023-07-16T06:15:17;11.63;;;6.73;;
15202;SDS011;7702;51.046;5.184;2023-07-16T06:17:42;11.10;;;6.60;;
15202;SDS011;7702;51.046;5.184;2023-07-16T06:20:08;10.63;;;6.37;;
15202;SDS011;7702;51.046;5.184;2023-07-16T06:22:34;10.53;;;6.50;;
15202;SDS011;7702;51.046;5.184;2023-07-16T06:25:00;10.33;;;5.73;;
15202;SDS011;7702;51.046;5.184;2023-07-16T06:27:26;13.30;;;6.63;;
15202;SDS011;7702;51.046;5.184;2023-07-16T06:29:52;9.23;;;6.37;;
15202;SDS011;7702;51.046;5.184;2023-07-16T06:32:18;10.07;;;6.23;;
15202;SDS011;7702;51.046;5.184;2023-07-16T06:34:44;13.83;;;6.33;;
15202;SDS011;7702;51.046;5.184;2023-07-16T06:37:09;11.77;;;6.50;;
15202;SDS011;7702;51.046;5.184;2023-07-16T06:39:35;13.70;;;6.90;;
15202;SDS011;7702;51.046;5.184;2023-07-16T06:42:01;9.70;;;6.50;;
15202;SDS011;7702;51.046;5.184;2023-07-16T06:44:27;11.83;;;7.03;;
15202;SDS011;7702;51.046;5.184;2023-07-16T06:46:52;9.57;;;6.40;;
15202;SDS011;7702;51.046;5.184;2023-07-16T06:49:19;12.43;;;6.73;;
15202;SDS011;7702;51.046;5.184;2023-07-16T06:51:44;11.53;;;6.83;;
15202;SDS011;7702;51.046;5.184;2023-07-16T06:54:10;13.87;;;6.93;;
15202;SDS011;7702;51.046;5.184;2023-07-16T06:56:36;8.90;;;6.63;;
15202;SDS011;7702;51.046;5.184;2023-07-16T06:59:01;11.93;;;6.70;;
15202;SDS011;7702;51.046;5.184;2023-07-16T07:01:27;12.00;;;7.23;;
15202;SDS011;7702;51.046;5.184;2023-07-16T07:03:53;10.67;;;6.80;;
15202;SDS011;7702;51.046;5.184;2023-07-16T07:06:19;14.17;;;7.43;;
15202;SDS011;7702;51.046;5.184;2023-07-16T07:08:46;12.67;;;6.80;;
15202;SDS011;7702;51.046;5.184;2023-07-16T07:11:12;14.63;;;7.20;;
15202;SDS011;7702;51.046;5.184;2023-07-16T07:13:37;11.27;;;6.70;;
15202;SDS011;7702;51.046;5.184;2023-07-16T07:16:03;10.23;;;6.77;;
15202;SDS011;7702;51.046;5.184;2023-07-16T07:18:29;12.73;;;7.40;;
15202;SDS011;7702;51.046;5.184;2023-07-16T07:20:55;16.53;;;8.07;;
15202;SDS011;7702;51.046;5.184;2023-07-16T07:23:21;12.20;;;6.37;;
15202;SDS011;7702;51.046;5.184;2023-07-16T07:25:50;13.93;;;6.93;;
15202;SDS011;7702;51.046;5.184;2023-07-16T07:28:16;10.30;;;6.83;;
15202;SDS011;7702;51.046;5.184;2023-07-16T07:30:42;13.67;;;6.50;;
15202;SDS011;7702;51.046;5.184;2023-07-16T07:33:08;8.63;;;5.73;;
15202;SDS011;7702;51.046;5.184;2023-07-16T07:35:34;10.97;;;6.60;;
15202;SDS011;7702;51.046;5.184;2023-07-16T07:38:01;10.10;;;6.70;;
15202;SDS011;7702;51.046;5.184;2023-07-16T07:40:27;10.30;;;6.67;;
15202;SDS011;7702;51.046;5.184;2023-07-16T07:42:53;12.17;;;6.70;;
15202;SDS011;7702;51.046;5.184;2023-07-16T07:45:18;10.97;;;6.43;;
15202;SDS011;7702;51.046;5.184;2023-07-16T07:47:44;14.13;;;6.27;;
15202;SDS011;7702;51.046;5.184;2023-07-16T07:50:10;10.20;;;6.20;;
15202;SDS011;7702;51.046;5.184;2023-07-16T07:52:36;10.13;;;6.30;;
15202;SDS011;7702;51.046;5.184;2023-07-16T07:55:02;7.80;;;5.70;;
15202;SDS011;7702;51.046;5.184;2023-07-16T07:57:29;10.47;;;6.30;;
15202;SDS011;7702;51.046;5.184;2023-07-16T07:59:54;7.43;;;5.90;;
15202;SDS011;7702;51.046;5.184;2023-07-16T08:02:22;10.20;;;5.73;;
15202;SDS011;7702;51.046;5.184;2023-07-16T08:04:54;7.37;;;5.20;;
15202;SDS011;7702;51.046;5.184;2023-07-16T08:07:20;6.43;;;4.83;;
15202;SDS011;7702;51.046;5.184;2023-07-16T08:09:47;11.30;;;5.53;;
15202;SDS011;7702;51.046;5.184;2023-07-16T08:12:13;8.93;;;5.07;;
15202;SDS011;7702;51.046;5.184;2023-07-16T08:14:39;9.97;;;5.83;;
15202;SDS011;7702;51.046;5.184;2023-07-16T08:17:06;10.97;;;6.13;;
15202;SDS011;7702;51.046;5.184;2023-07-16T08:19:32;7.93;;;5.90;;
15202;SDS011;7702;51.046;5.184;2023-07-16T08:21:58;10.17;;;6.17;;
15202;SDS011;7702;51.046;5.184;2023-07-16T08:24:24;11.70;;;5.47;;
15202;SDS011;7702;51.046;5.184;2023-07-16T08:26:50;8.03;;;5.83;;
15202;SDS011;7702;51.046;5.184;2023-07-16T08:29:16;9.20;;;6.00;;
15202;SDS011;7702;51.046;5.184;2023-07-16T08:31:42;7.20;;;5.73;;
15202;SDS011;7702;51.046;5.184;2023-07-16T08:34:08;10.03;;;5.83;;
15202;SDS011;7702;51.046;5.184;2023-07-16T08:36:34;7.30;;;5.33;;
15202;SDS011;7702;51.046;5.184;2023-07-16T08:39:01;9.53;;;5.80;;
15202;SDS011;7702;51.046;5.184;2023-07-16T08:41:27;7.90;;;4.73;;
15202;SDS011;7702;51.046;5.184;2023-07-16T08:43:54;6.67;;;4.97;;
15202;SDS011;7702;51.046;5.184;2023-07-16T08:46:20;6.33;;;4.83;;
15202;SDS011;7702;51.046;5.184;2023-07-16T08:48:46;7.73;;;4.73;;
15202;SDS011;7702;51.046;5.184;2023-07-16T08:51:14;6.70;;;4.40;;
15202;SDS011;7702;51.046;5.184;2023-07-16T08:53:41;11.93;;;5.10;;
15202;SDS011;7702;51.046;5.184;2023-07-16T08:56:07;8.43;;;5.00;;
15202;SDS011;7702;51.046;5.184;2023-07-16T08:58:33;6.63;;;4.97;;
15202;SDS011;7702;51.046;5.184;2023-07-16T09:01:00;7.33;;;4.70;;
15202;SDS011;7702;51.046;5.184;2023-07-16T09:03:26;5.60;;;3.97;;
15202;SDS011;7702;51.046;5.184;2023-07-16T09:05:53;8.97;;;4.70;;
15202;SDS011;7702;51.046;5.184;2023-07-16T09:08:19;5.90;;;4.60;;
15202;SDS011;7702;51.046;5.184;2023-07-16T09:10:52;6.40;;;4.73;;
15202;SDS011;7702;51.046;5.184;2023-07-16T09:13:19;7.57;;;4.97;;
15202;SDS011;7702;51.046;5.184;2023-07-16T09:15:50;9.13;;;4.93;;
15202;SDS011;7702;51.046;5.184;2023-07-16T09:18:24;6.90;;;4.30;;
15202;SDS011;7702;51.046;5.184;2023-07-16T09:20:57;10.60;;;4.40;;
15202;SDS011;7702;51.046;5.184;2023-07-16T09:23:26;7.70;;;4.17;;
15202;SDS011;7702;51.046;5.184;2023-07-16T09:25:53;7.73;;;4.83;;
15202;SDS011;7702;51.046;5.184;2023-07-16T09:28:20;4.17;;;3.77;;
15202;SDS011;7702;51.046;5.184;2023-07-16T09:30:46;7.20;;;3.80;;
15202;SDS011;7702;51.046;5.184;2023-07-16T09:33:13;5.13;;;3.40;;
15202;SDS011;7702;51.046;5.184;2023-07-16T09:35:40;6.67;;;4.00;;
15202;SDS011;7702;51.046;5.184;2023-07-16T09:38:07;5.20;;;4.43;;
15202;SDS011;7702;51.046;5.184;2023-07-16T09:40:35;5.40;;;3.50;;
15202;SDS011;7702;51.046;5.184;2023-07-16T09:43:01;3.47;;;3.13;;
15202;SDS011;7702;51.046;5.184;2023-07-16T09:45:28;6.30;;;3.90;;
15202;SDS011;7702;51.046;5.184;2023-07-16T09:47:53;5.27;;;3.30;;
15202;SDS011;7702;51.046;5.184;2023-07-16T09:50:20;7.23;;;3.23;;
15202;SDS011;7702;51.046;5.184;2023-07-16T09:52:52;5.70;;;3.97;;
15202;SDS011;7702;51.046;5.184;2023-07-16T09:55:18;6.30;;;3.73;;
15202;SDS011;7702;51.046;5.184;2023-07-16T09:57:48;4.90;;;3.43;;
15202;SDS011;7702;51.046;5.184;2023-07-16T10:00:15;7.13;;;3.87;;
15202;SDS011;7702;51.046;5.184;2023-07-16T10:02:42;4.93;;;3.90;;
15202;SDS011;7702;51.046;5.184;2023-07-16T10:05:13;5.47;;;3.30;;
15202;SDS011;7702;51.046;5.184;2023-07-16T10:07:40;4.33;;;3.37;;
15202;SDS011;7702;51.046;5.184;2023-07-16T10:10:09;9.87;;;3.77;;
15202;SDS011;7702;51.046;5.184;2023-07-16T10:12:37;5.17;;;3.20;;
15202;SDS011;7702;51.046;5.184;2023-07-16T10:15:03;5.07;;;3.90;;
15202;SDS011;7702;51.046;5.184;2023-07-16T10:17:31;6.10;;;3.60;;
15202;SDS011;7702;51.046;5.184;2023-07-16T10:20:00;7.37;;;4.73;;
15202;SDS011;7702;51.046;5.184;2023-07-16T10:22:39;7.03;;;4.13;;
15202;SDS011;7702;51.046;5.184;2023-07-16T10:27:47;7.40;;;4.37;;
15202;SDS011;7702;51.046;5.184;2023-07-16T10:30:14;5.27;;;3.53;;
15202;SDS011;7702;51.046;5.184;2023-07-16T10:32:41;5.63;;;3.50;;
15202;SDS011;7702;51.046;5.184;2023-07-16T10:35:07;5.47;;;3.87;;
15202;SDS011;7702;51.046;5.184;2023-07-16T10:37:34;7.23;;;3.50;;
15202;SDS011;7702;51.046;5.184;2023-07-16T10:40:00;5.97;;;3.67;;
15202;SDS011;7702;51.046;5.184;2023-07-16T10:42:28;6.27;;;3.30;;
15202;SDS011;7702;51.046;5.184;2023-07-16T10:44:58;6.50;;;3.70;;
15202;SDS011;7702;51.046;5.184;2023-07-16T10:50:02;6.87;;;3.90;;
15202;SDS011;7702;51.046;5.184;2023-07-16T10:52:30;5.30;;;4.13;;
15202;SDS011;7702;51.046;5.184;2023-07-16T10:54:55;5.37;;;3.40;;
15202;SDS011;7702;51.046;5.184;2023-07-16T10:57:22;4.80;;;3.60;;
15202;SDS011;7702;51.046;5.184;2023-07-16T10:59:52;5.83;;;3.80;;
15202;SDS011;7702;51.046;5.184;2023-07-16T11:02:20;5.33;;;3.43;;
15202;SDS011;7702;51.046;5.184;2023-07-16T11:04:47;4.97;;;3.63;;
15202;SDS011;7702;51.046;5.184;2023-07-16T11:07:13;4.07;;;3.60;;
15202;SDS011;7702;51.046;5.184;2023-07-16T11:12:10;4.47;;;3.43;;
15202;SDS011;7702;51.046;5.184;2023-07-16T11:14:38;5.73;;;3.87;;
15202;SDS011;7702;51.046;5.184;2023-07-16T11:17:07;4.67;;;3.90;;
15202;SDS011;7702;51.046;5.184;2023-07-16T11:19:33;4.83;;;3.73;;
15202;SDS011;7702;51.046;5.184;2023-07-16T11:22:01;4.87;;;3.70;;
15202;SDS011;7702;51.046;5.184;2023-07-16T11:24:28;5.10;;;3.73;;
15202;SDS011;7702;51.046;5.184;2023-07-16T11:27:00;6.27;;;4.27;;
15202;SDS011;7702;51.046;5.184;2023-07-16T11:29:26;7.03;;;4.47;;
15202;SDS011;7702;51.046;5.184;2023-07-16T11:31:59;6.93;;;3.87;;
15202;SDS011;7702;51.046;5.184;2023-07-16T11:34:25;5.23;;;4.03;;
15202;SDS011;7702;51.046;5.184;2023-07-16T11:36:50;5.10;;;4.03;;
15202;SDS011;7702;51.046;5.184;2023-07-16T11:39:16;4.73;;;3.43;;
15202;SDS011;7702;51.046;5.184;2023-07-16T11:41:42;5.03;;;3.80;;
15202;SDS011;7702;51.046;5.184;2023-07-16T11:44:19;5.90;;;3.70;;
15202;SDS011;7702;51.046;5.184;2023-07-16T11:46:46;4.93;;;3.57;;
15202;SDS011;7702;51.046;5.184;2023-07-16T11:49:13;6.43;;;4.10;;
15202;SDS011;7702;51.046;5.184;2023-07-16T11:51:39;4.37;;;3.97;;
15202;SDS011;7702;51.046;5.184;2023-07-16T11:54:05;6.97;;;4.27;;
15202;SDS011;7702;51.046;5.184;2023-07-16T11:56:30;5.10;;;3.77;;
15202;SDS011;7702;51.046;5.184;2023-07-16T11:58:56;7.53;;;3.73;;
15202;SDS011;7702;51.046;5.184;2023-07-16T12:01:22;6.50;;;3.87;;
15202;SDS011;7702;51.046;5.184;2023-07-16T12:03:48;8.23;;;3.63;;
15202;SDS011;7702;51.046;5.184;2023-07-16T12:06:14;4.97;;;3.57;;
15202;SDS011;7702;51.046;5.184;2023-07-16T12:08:39;6.33;;;4.10;;
15202;SDS011;7702;51.046;5.184;2023-07-16T12:11:05;7.93;;;4.23;;
15202;SDS011;7702;51.046;5.184;2023-07-16T12:13:31;4.87;;;3.60;;
15202;SDS011;7702;51.046;5.184;2023-07-16T12:15:56;5.07;;;3.57;;
15202;SDS011;7702;51.046;5.184;2023-07-16T12:18:22;5.77;;;3.50;;
15202;SDS011;7702;51.046;5.184;2023-07-16T12:20:48;5.20;;;3.70;;
15202;SDS011;7702;51.046;5.184;2023-07-16T12:23:13;6.97;;;4.13;;
15202;SDS011;7702;51.046;5.184;2023-07-16T12:25:39;5.30;;;4.20;;
15202;SDS011;7702;51.046;5.184;2023-07-16T12:28:05;6.87;;;4.03;;
15202;SDS011;7702;51.046;5.184;2023-07-16T12:30:31;6.13;;;3.87;;
15202;SDS011;7702;51.046;5.184;2023-07-16T12:32:57;4.93;;;4.03;;
15202;SDS011;7702;51.046;5.184;2023-07-16T12:35:22;6.23;;;3.50;;
15202;SDS011;7702;51.046;5.184;2023-07-16T12:37:48;5.20;;;3.70;;
15202;SDS011;7702;51.046;5.184;2023-07-16T12:40:14;4.53;;;2.97;;
15202;SDS011;7702;51.046;5.184;2023-07-16T12:42:40;3.63;;;3.33;;
15202;SDS011;7702;51.046;5.184;2023-07-16T12:45:06;4.43;;;3.40;;
15202;SDS011;7702;51.046;5.184;2023-07-16T12:47:32;4.87;;;3.50;;
15202;SDS011;7702;51.046;5.184;2023-07-16T12:49:58;5.87;;;2.80;;
15202;SDS011;7702;51.046;5.184;2023-07-16T12:52:24;4.67;;;2.97;;
15202;SDS011;7702;51.046;5.184;2023-07-16T12:54:50;5.27;;;2.97;;
15202;SDS011;7702;51.046;5.184;2023-07-16T12:57:16;5.83;;;3.90;;
15202;SDS011;7702;51.046;5.184;2023-07-16T12:59:42;5.43;;;3.27;;
15202;SDS011;7702;51.046;5.184;2023-07-16T13:02:08;5.63;;;3.37;;
15202;SDS011;7702;51.046;5.184;2023-07-16T13:04:33;6.20;;;3.10;;
15202;SDS011;7702;51.046;5.184;2023-07-16T13:06:59;5.80;;;3.60;;
15202;SDS011;7702;51.046;5.184;2023-07-16T13:09:25;5.03;;;2.93;;
15202;SDS011;7702;51.046;5.184;2023-07-16T13:11:52;5.70;;;3.20;;
15202;SDS011;7702;51.046;5.184;2023-07-16T13:14:17;5.00;;;3.27;;
15202;SDS011;7702;51.046;5.184;2023-07-16T13:16:43;6.03;;;3.70;;
15202;SDS011;7702;51.046;5.184;2023-07-16T13:19:09;5.50;;;3.40;;
15202;SDS011;7702;51.046;5.184;2023-07-16T13:21:34;4.40;;;3.07;;
15202;SDS011;7702;51.046;5.184;2023-07-16T13:24:00;5.37;;;3.60;;
15202;SDS011;7702;51.046;5.184;2023-07-16T13:26:26;4.60;;;3.10;;
15202;SDS011;7702;51.046;5.184;2023-07-16T13:28:52;3.63;;;2.83;;
15202;SDS011;7702;51.046;5.184;2023-07-16T13:31:17;4.67;;;2.93;;
15202;SDS011;7702;51.046;5.184;2023-07-16T13:33:43;4.07;;;2.90;;
15202;SDS011;7702;51.046;5.184;2023-07-16T13:36:09;4.03;;;2.97;;
15202;SDS011;7702;51.046;5.184;2023-07-16T13:38:34;4.30;;;2.90;;
15202;SDS011;7702;51.046;5.184;2023-07-16T13:41:00;3.73;;;2.90;;
15202;SDS011;7702;51.046;5.184;2023-07-16T13:43:26;3.97;;;2.70;;
15202;SDS011;7702;51.046;5.184;2023-07-16T13:45:51;5.13;;;3.43;;
15202;SDS011;7702;51.046;5.184;2023-07-16T13:48:17;3.87;;;3.50;;
15202;SDS011;7702;51.046;5.184;2023-07-16T13:50:44;4.20;;;3.17;;
15202;SDS011;7702;51.046;5.184;2023-07-16T13:53:09;6.73;;;3.23;;
15202;SDS011;7702;51.046;5.184;2023-07-16T13:55:35;4.83;;;3.03;;
15202;SDS011;7702;51.046;5.184;2023-07-16T13:58:00;4.67;;;2.97;;
15202;SDS011;7702;51.046;5.184;2023-07-16T14:00:26;4.97;;;3.10;;
15202;SDS011;7702;51.046;5.184;2023-07-16T14:02:52;4.93;;;3.33;;
15202;SDS011;7702;51.046;5.184;2023-07-16T14:05:18;5.63;;;3.20;;
15202;SDS011;7702;51.046;5.184;2023-07-16T14:07:44;6.27;;;3.30;;
15202;SDS011;7702;51.046;5.184;2023-07-16T14:10:10;4.70;;;3.30;;
15202;SDS011;7702;51.046;5.184;2023-07-16T14:12:36;4.67;;;3.43;;
15202;SDS011;7702;51.046;5.184;2023-07-16T14:15:01;4.57;;;3.07;;
15202;SDS011;7702;51.046;5.184;2023-07-16T14:17:27;3.67;;;2.90;;
15202;SDS011;7702;51.046;5.184;2023-07-16T14:19:53;6.07;;;3.00;;
15202;SDS011;7702;51.046;5.184;2023-07-16T14:22:18;6.33;;;3.00;;
15202;SDS011;7702;51.046;5.184;2023-07-16T14:24:44;6.87;;;3.07;;
15202;SDS011;7702;51.046;5.184;2023-07-16T14:27:11;4.90;;;3.03;;
15202;SDS011;7702;51.046;5.184;2023-07-16T14:29:38;3.07;;;2.40;;
15202;SDS011;7702;51.046;5.184;2023-07-16T14:32:05;3.30;;;2.57;;
15202;SDS011;7702;51.046;5.184;2023-07-16T14:34:30;5.30;;;3.20;;
15202;SDS011;7702;51.046;5.184;2023-07-16T14:36:56;3.70;;;3.40;;
15202;SDS011;7702;51.046;5.184;2023-07-16T14:39:22;3.57;;;2.90;;
15202;SDS011;7702;51.046;5.184;2023-07-16T14:41:47;3.70;;;3.10;;
15202;SDS011;7702;51.046;5.184;2023-07-16T14:44:14;7.47;;;3.13;;
15202;SDS011;7702;51.046;5.184;2023-07-16T14:46:39;5.57;;;3.20;;
15202;SDS011;7702;51.046;5.184;2023-07-16T14:49:05;4.80;;;3.60;;
15202;SDS011;7702;51.046;5.184;2023-07-16T14:51:31;4.13;;;2.87;;
15202;SDS011;7702;51.046;5.184;2023-07-16T14:53:57;5.10;;;3.40;;
15202;SDS011;7702;51.046;5.184;2023-07-16T14:56:22;4.63;;;3.20;;
15202;SDS011;7702;51.046;5.184;2023-07-16T14:58:48;7.73;;;3.77;;
15202;SDS011;7702;51.046;5.184;2023-07-16T15:01:14;3.93;;;3.23;;
15202;SDS011;7702;51.046;5.184;2023-07-16T15:03:39;5.20;;;3.30;;
15202;SDS011;7702;51.046;5.184;2023-07-16T15:06:06;4.20;;;3.47;;
15202;SDS011;7702;51.046;5.184;2023-07-16T15:08:32;5.23;;;3.47;;